Time;durP1;ratioP1;P1;durP2;ratioP2;P2;SDS_P1;SDS_P2;PMS_P1;PMS_P2;Temp;Humidity;BMP_temperature;BMP_pressure;BME280_temperature;BME280_humidity;BME280_pressure;Samples;Min_cycle;Max_cycle;Signal;HPM_P1;HPM_P2
2023/12/05 00:01:29;;;;;;;14.02;7.60;;;;;;;;;;5095547;28;20494;-76
2023/12/05 00:03:54;;;;;;;14.32;7.28;;;;;;;;;;5095945;28;20024;-77
2023/12/05 00:06:19;;;;;;;12.25;6.57;;;;;;;;;;5095815;28;20470;-77
2023/12/05 00:08:44;;;;;;;7.30;4.13;;;;;;;;;;5095131;28;20514;-78
2023/12/05 00:11:10;;;;;;;7.78;4.35;;;;;;;;;;5095409;28;20028;-77
2023/12/05 00:13:35;;;;;;;16.42;7.93;;;;;;;;;;5096282;28;20031;-79
2023/12/05 00:16:00;;;;;;;15.73;7.43;;;;;;;;;;5096063;28;20032;-80
2023/12/05 00:18:26;;;;;;;13.40;6.25;;;;;;;;;;5094787;28;20024;-77
2023/12/05 00:20:51;;;;;;;14.05;7.00;;;;;;;;;;5095472;28;20032;-77
2023/12/05 00:23:16;;;;;;;12.43;6.30;;;;;;;;;;5094988;28;20107;-76
2023/12/05 00:25:42;;;;;;;11.93;6.18;;;;;;;;;;5095066;28;20035;-77
2023/12/05 00:28:07;;;;;;;7.00;4.28;;;;;;;;;;5095483;28;20024;-77
2023/12/05 00:30:41;;;;;;;9.93;5.72;;;;;;;;;;5097322;28;20137;-78
2023/12/05 00:33:06;;;;;;;12.30;6.57;;;;;;;;;;5094978;28;20027;-78
2023/12/05 00:35:32;;;;;;;14.93;7.85;;;;;;;;;;5093979;28;20394;-78
2023/12/05 00:37:57;;;;;;;8.93;5.45;;;;;;;;;;5092457;28;20570;-76
2023/12/05 00:40:29;;;;;;;10.07;5.55;;;;;;;;;;5094690;28;20020;-77
2023/12/05 00:42:54;;;;;;;14.02;8.07;;;;;;;;;;5094797;28;20474;-76
2023/12/05 00:45:20;;;;;;;11.20;5.45;;;;;;;;;;5094086;28;20077;-77
2023/12/05 00:47:45;;;;;;;5.57;2.65;;;;;;;;;;5094650;28;20024;-77
2023/12/05 00:50:10;;;;;;;10.55;6.40;;;;;;;;;;5094149;28;20032;-77
2023/12/05 00:52:35;;;;;;;10.05;5.57;;;;;;;;;;5093935;28;20032;-77
2023/12/05 00:55:01;;;;;;;14.02;6.55;;;;;;;;;;5094364;28;20055;-76
2023/12/05 00:57:26;;;;;;;9.35;5.88;;;;;;;;;;5093181;28;20023;-76
2023/12/05 00:59:51;;;;;;;14.80;7.10;;;;;;;;;;5094702;28;20059;-77
2023/12/05 01:02:16;;;;;;;11.68;6.55;;;;;;;;;;5093436;28;20024;-78
2023/12/05 01:04:41;;;;;;;12.73;6.38;;;;;;;;;;5093047;28;20035;-77
2023/12/05 01:07:07;;;;;;;15.27;8.13;;;;;;;;;;5094164;28;20043;-75
2023/12/05 01:09:32;;;;;;;14.70;7.65;;;;;;;;;;5092595;28;20035;-76
2023/12/05 01:11:58;;;;;;;17.23;6.97;;;;;;;;;;5092679;28;20041;-76
2023/12/05 01:14:23;;;;;;;10.48;5.20;;;;;;;;;;5092741;28;20122;-75
2023/12/05 01:16:48;;;;;;;15.20;6.22;;;;;;;;;;5094019;28;20034;-75
2023/12/05 01:19:13;;;;;;;16.83;8.05;;;;;;;;;;5093840;28;20016;-76
2023/12/05 01:21:39;;;;;;;6.80;3.67;;;;;;;;;;5094225;28;20031;-76
2023/12/05 01:24:04;;;;;;;12.02;6.05;;;;;;;;;;5093972;28;20036;-78
2023/12/05 01:26:29;;;;;;;14.60;6.45;;;;;;;;;;5092426;28;20024;-76
2023/12/05 01:28:55;;;;;;;8.10;4.38;;;;;;;;;;5092437;28;20020;-76
2023/12/05 01:31:20;;;;;;;10.85;6.05;;;;;;;;;;5093727;28;20031;-76
2023/12/05 01:33:46;;;;;;;9.02;5.35;;;;;;;;;;5093843;28;20550;-77
2023/12/05 01:36:11;;;;;;;8.07;5.30;;;;;;;;;;5093667;28;20051;-77
2023/12/05 01:38:37;;;;;;;13.25;7.15;;;;;;;;;;5093499;28;20479;-76
2023/12/05 01:41:02;;;;;;;16.52;7.03;;;;;;;;;;5093629;28;20095;-77
2023/12/05 01:43:27;;;;;;;11.00;6.00;;;;;;;;;;5092645;28;20036;-77
2023/12/05 01:45:55;;;;;;;7.47;3.75;;;;;;;;;;5093598;28;20020;-77
2023/12/05 01:48:22;;;;;;;16.00;7.93;;;;;;;;;;5093603;28;20077;-76
2023/12/05 01:50:47;;;;;;;13.27;6.88;;;;;;;;;;5093099;28;20042;-77
2023/12/05 01:53:15;;;;;;;13.45;6.72;;;;;;;;;;5094273;28;20050;-77
2023/12/05 01:55:42;;;;;;;7.20;4.05;;;;;;;;;;5094126;28;20023;-77
2023/12/05 01:58:08;;;;;;;5.47;3.58;;;;;;;;;;5094035;28;20529;-77
2023/12/05 02:00:34;;;;;;;10.80;5.55;;;;;;;;;;5094642;28;20020;-77
2023/12/05 02:02:59;;;;;;;12.65;7.13;;;;;;;;;;5093942;28;20069;-77
2023/12/05 02:05:26;;;;;;;14.20;7.22;;;;;;;;;;5093092;28;20028;-77
2023/12/05 02:07:51;;;;;;;11.98;5.45;;;;;;;;;;5094001;28;20028;-77
2023/12/05 02:10:17;;;;;;;5.60;3.95;;;;;;;;;;5092581;28;20035;-77
2023/12/05 02:12:43;;;;;;;7.30;4.55;;;;;;;;;;5093719;28;20081;-77
2023/12/05 02:15:08;;;;;;;10.38;5.25;;;;;;;;;;5093607;28;20059;-77
2023/12/05 02:17:55;;;;;;;10.23;5.93;;;;;;;;;;5094028;28;20032;-77
2023/12/05 02:20:48;;;;;;;5.22;3.05;;;;;;;;;;5092897;28;20022;-77
2023/12/05 02:23:41;;;;;;;6.45;3.38;;;;;;;;;;5092615;28;20047;-77
2023/12/05 02:26:36;;;;;;;10.48;5.97;;;;;;;;;;5093794;28;20081;-75
2023/12/05 02:29:02;;;;;;;7.10;4.28;;;;;;;;;;5079901;28;20032;-77
2023/12/05 02:31:27;;;;;;;10.63;5.43;;;;;;;;;;5092725;28;20110;-76
2023/12/05 02:33:53;;;;;;;10.07;4.53;;;;;;;;;;5092878;28;20020;-77
2023/12/05 02:36:55;;;;;;;7.30;4.18;;;;;;;;;;5093058;28;20031;-77
2023/12/05 02:39:30;;;;;;;7.28;4.28;;;;;;;;;;5093878;28;20024;-76
2023/12/05 02:41:58;;;;;;;10.30;5.72;;;;;;;;;;5092717;28;20443;-77
2023/12/05 02:44:26;;;;;;;9.20;4.28;;;;;;;;;;5092750;28;20379;-77
2023/12/05 02:46:52;;;;;;;12.95;6.45;;;;;;;;;;5093261;28;20032;-77
2023/12/05 02:49:18;;;;;;;8.77;4.40;;;;;;;;;;5092420;28;20540;-77
2023/12/05 02:51:43;;;;;;;13.98;6.28;;;;;;;;;;5091383;28;20024;-76
2023/12/05 02:54:08;;;;;;;10.13;5.45;;;;;;;;;;5092762;28;20031;-76
2023/12/05 02:56:35;;;;;;;5.93;3.55;;;;;;;;;;5091359;28;20539;-76
2023/12/05 02:59:00;;;;;;;10.73;5.43;;;;;;;;;;5092740;28;20475;-77
2023/12/05 03:01:26;;;;;;;7.75;4.50;;;;;;;;;;5091553;28;20036;-77
2023/12/05 03:03:51;;;;;;;10.70;5.47;;;;;;;;;;5092721;28;20059;-77
2023/12/05 03:06:16;;;;;;;6.03;3.00;;;;;;;;;;5092932;28;20016;-76
2023/12/05 03:08:41;;;;;;;8.30;4.88;;;;;;;;;;5091547;28;20036;-77
2023/12/05 03:11:07;;;;;;;10.85;5.68;;;;;;;;;;5092818;28;20032;-77
2023/12/05 03:13:32;;;;;;;12.02;6.25;;;;;;;;;;5091658;28;20024;-77
2023/12/05 03:15:57;;;;;;;10.82;5.80;;;;;;;;;;5093030;28;20036;-76
2023/12/05 03:18:24;;;;;;;10.27;5.35;;;;;;;;;;5096482;28;20043;-76
2023/12/05 03:20:49;;;;;;;14.07;5.93;;;;;;;;;;5095201;28;20092;-77
2023/12/05 03:23:18;;;;;;;12.68;7.00;;;;;;;;;;5095721;28;20538;-77
2023/12/05 03:25:43;;;;;;;11.25;6.53;;;;;;;;;;5097524;28;20460;-77
2023/12/05 03:28:08;;;;;;;14.45;7.07;;;;;;;;;;5097362;28;20038;-77
2023/12/05 03:30:33;;;;;;;11.35;5.70;;;;;;;;;;5095719;28;20441;-77
2023/12/05 03:32:59;;;;;;;13.98;6.82;;;;;;;;;;5094935;28;20422;-77
2023/12/05 03:35:24;;;;;;;3.72;2.72;;;;;;;;;;5096257;28;20375;-77
2023/12/05 03:37:49;;;;;;;8.75;4.50;;;;;;;;;;5094782;28;20053;-77
2023/12/05 03:40:14;;;;;;;7.97;4.60;;;;;;;;;;5097249;28;20016;-77
2023/12/05 03:42:40;;;;;;;9.48;5.78;;;;;;;;;;5097131;28;20051;-77
2023/12/05 03:45:05;;;;;;;14.75;6.13;;;;;;;;;;5096865;28;20467;-77
2023/12/05 03:47:31;;;;;;;10.65;6.03;;;;;;;;;;5096413;28;20028;-77
2023/12/05 03:49:56;;;;;;;5.25;3.38;;;;;;;;;;5097761;28;20166;-77
2023/12/05 03:52:21;;;;;;;11.57;6.00;;;;;;;;;;5097769;28;20058;-78
2023/12/05 03:54:46;;;;;;;10.07;5.43;;;;;;;;;;5095850;28;20054;-77
2023/12/05 03:57:12;;;;;;;11.05;5.78;;;;;;;;;;5094495;28;20031;-77
2023/12/05 03:59:37;;;;;;;11.07;5.93;;;;;;;;;;5094247;28;20044;-77
2023/12/05 04:02:02;;;;;;;4.75;3.00;;;;;;;;;;5095208;28;20032;-77
2023/12/05 04:04:28;;;;;;;8.95;4.97;;;;;;;;;;5095340;28;20035;-76
2023/12/05 04:06:53;;;;;;;12.43;6.35;;;;;;;;;;5093978;28;20020;-77
2023/12/05 04:09:18;;;;;;;9.68;5.05;;;;;;;;;;5095181;28;20036;-77
2023/12/05 04:11:43;;;;;;;12.63;6.22;;;;;;;;;;5093925;28;20026;-76
2023/12/05 04:14:08;;;;;;;10.85;6.07;;;;;;;;;;5095144;28;20062;-77
2023/12/05 04:16:34;;;;;;;3.90;2.47;;;;;;;;;;5095344;28;20028;-76
2023/12/05 04:19:00;;;;;;;9.80;5.85;;;;;;;;;;5095117;28;20023;-77
2023/12/05 04:21:26;;;;;;;14.07;7.10;;;;;;;;;;5093994;28;20026;-77
2023/12/05 04:23:51;;;;;;;11.52;5.90;;;;;;;;;;5094473;28;20509;-77
2023/12/05 04:26:18;;;;;;;11.38;6.90;;;;;;;;;;5095648;28;20035;-77
2023/12/05 04:28:44;;;;;;;11.52;6.57;;;;;;;;;;5096181;28;20463;-77
2023/12/05 04:31:09;;;;;;;12.18;6.35;;;;;;;;;;5094804;28;20063;-77
2023/12/05 04:33:35;;;;;;;12.75;6.03;;;;;;;;;;5095006;28;20455;-78
2023/12/05 04:36:00;;;;;;;8.30;4.22;;;;;;;;;;5093619;28;20157;-77
2023/12/05 04:38:25;;;;;;;7.15;4.03;;;;;;;;;;5094034;28;20054;-77
2023/12/05 04:40:51;;;;;;;7.40;4.20;;;;;;;;;;5094586;28;20024;-77
2023/12/05 04:43:16;;;;;;;5.82;3.72;;;;;;;;;;5095157;28;20078;-77
2023/12/05 04:45:42;;;;;;;10.95;6.20;;;;;;;;;;5095366;28;20494;-77
2023/12/05 04:48:08;;;;;;;10.73;6.22;;;;;;;;;;5095211;28;20039;-77
2023/12/05 04:50:33;;;;;;;9.18;5.18;;;;;;;;;;5095052;28;20059;-77
2023/12/05 04:52:58;;;;;;;11.25;5.78;;;;;;;;;;5095004;28;20545;-77
2023/12/05 04:55:23;;;;;;;8.40;4.25;;;;;;;;;;5095459;28;20042;-77
2023/12/05 04:57:48;;;;;;;7.57;4.18;;;;;;;;;;5096295;28;20028;-77
2023/12/05 05:00:14;;;;;;;15.55;7.38;;;;;;;;;;5096394;28;20085;-77
2023/12/05 05:02:39;;;;;;;11.43;6.60;;;;;;;;;;5095790;28;20024;-77
2023/12/05 05:05:05;;;;;;;8.77;4.95;;;;;;;;;;5096448;28;20081;-77
2023/12/05 05:07:30;;;;;;;11.05;5.82;;;;;;;;;;5094641;28;20031;-77
2023/12/05 05:09:55;;;;;;;11.93;6.25;;;;;;;;;;5094480;28;20024;-76
2023/12/05 05:12:20;;;;;;;8.05;4.45;;;;;;;;;;5094250;28;20132;-78
2023/12/05 05:14:46;;;;;;;11.38;5.72;;;;;;;;;;5095491;28;20023;-79
2023/12/05 05:17:11;;;;;;;5.45;3.53;;;;;;;;;;5094878;28;20387;-77
2023/12/05 05:19:36;;;;;;;3.55;1.92;;;;;;;;;;5094598;28;20368;-78
2023/12/05 05:22:01;;;;;;;10.70;5.55;;;;;;;;;;5094385;28;20494;-78
2023/12/05 05:24:27;;;;;;;10.98;5.45;;;;;;;;;;5094720;28;20051;-77
2023/12/05 05:26:53;;;;;;;9.55;4.50;;;;;;;;;;5094777;28;20172;-77
2023/12/05 05:29:18;;;;;;;13.07;6.30;;;;;;;;;;5093421;28;20026;-78
2023/12/05 05:31:44;;;;;;;11.25;6.03;;;;;;;;;;5095140;28;20118;-77
2023/12/05 05:34:09;;;;;;;7.03;4.35;;;;;;;;;;5094720;28;20059;-78
2023/12/05 05:36:34;;;;;;;12.48;5.35;;;;;;;;;;5095106;28;20035;-78
2023/12/05 05:39:00;;;;;;;7.78;4.93;;;;;;;;;;5094721;28;20070;-78
2023/12/05 05:41:25;;;;;;;12.40;6.38;;;;;;;;;;5095114;28;20040;-77
2023/12/05 05:43:51;;;;;;;8.82;4.28;;;;;;;;;;5094424;28;20035;-78
2023/12/05 05:46:16;;;;;;;9.63;5.38;;;;;;;;;;5094412;28;20483;-78
2023/12/05 05:48:41;;;;;;;3.42;2.08;;;;;;;;;;5093260;28;20568;-78
2023/12/05 05:51:07;;;;;;;12.73;6.07;;;;;;;;;;5094164;28;20139;-77
2023/12/05 05:53:32;;;;;;;10.13;5.55;;;;;;;;;;5094211;28;20027;-77
2023/12/05 05:56:00;;;;;;;9.18;4.25;;;;;;;;;;5093744;28;20027;-77
2023/12/05 05:58:26;;;;;;;12.57;5.80;;;;;;;;;;5092398;28;20491;-77
2023/12/05 06:00:51;;;;;;;10.13;5.90;;;;;;;;;;5093678;28;20031;-76
2023/12/05 06:03:16;;;;;;;10.43;4.97;;;;;;;;;;5093774;28;20042;-77
2023/12/05 06:05:41;;;;;;;10.10;6.00;;;;;;;;;;5094018;28;20031;-77
2023/12/05 06:08:07;;;;;;;10.15;5.43;;;;;;;;;;5093614;28;20024;-77
2023/12/05 06:10:32;;;;;;;10.68;5.70;;;;;;;;;;5093683;28;20030;-77
2023/12/05 06:12:57;;;;;;;11.63;6.03;;;;;;;;;;5093183;28;20123;-77
2023/12/05 06:15:22;;;;;;;7.05;4.28;;;;;;;;;;5093176;28;20059;-77
2023/12/05 06:17:47;;;;;;;11.27;5.70;;;;;;;;;;5094235;28;20036;-76
2023/12/05 06:20:13;;;;;;;10.75;4.85;;;;;;;;;;5093883;28;20039;-77
2023/12/05 06:22:38;;;;;;;10.05;5.82;;;;;;;;;;5093721;28;20047;-77
2023/12/05 06:25:04;;;;;;;9.88;5.18;;;;;;;;;;5096332;28;20028;-77
2023/12/05 06:27:29;;;;;;;9.85;4.97;;;;;;;;;;5094434;28;20042;-78
2023/12/05 06:29:54;;;;;;;6.22;2.65;;;;;;;;;;5095097;28;20020;-77
2023/12/05 06:32:20;;;;;;;13.02;6.25;;;;;;;;;;5094223;28;20410;-77
2023/12/05 06:34:45;;;;;;;10.13;5.88;;;;;;;;;;5095503;28;20390;-77
2023/12/05 06:37:10;;;;;;;7.78;4.63;;;;;;;;;;5094279;28;20020;-77
2023/12/05 06:39:35;;;;;;;10.52;5.15;;;;;;;;;;5094764;28;20446;-77
2023/12/05 06:42:01;;;;;;;14.85;6.13;;;;;;;;;;5093078;28;20031;-76
2023/12/05 06:44:26;;;;;;;9.00;5.55;;;;;;;;;;5093734;28;20085;-77
2023/12/05 06:46:51;;;;;;;11.02;5.97;;;;;;;;;;5094184;28;20020;-77
2023/12/05 06:49:16;;;;;;;6.75;3.05;;;;;;;;;;5093901;28;20097;-77
2023/12/05 06:51:41;;;;;;;9.55;5.68;;;;;;;;;;5096396;28;20041;-77
2023/12/05 06:54:07;;;;;;;12.13;5.97;;;;;;;;;;5097202;28;20020;-77
2023/12/05 06:56:32;;;;;;;9.93;5.50;;;;;;;;;;5096593;28;20066;-77
2023/12/05 06:59:00;;;;;;;6.38;3.83;;;;;;;;;;5097630;28;20032;-77
2023/12/05 07:01:26;;;;;;;12.30;6.60;;;;;;;;;;5097978;28;20157;-77
2023/12/05 07:03:51;;;;;;;8.43;4.22;;;;;;;;;;5097931;28;20052;-77
2023/12/05 07:06:16;;;;;;;8.43;5.35;;;;;;;;;;5096131;28;20028;-77
2023/12/05 07:08:41;;;;;;;11.40;5.78;;;;;;;;;;5097674;28;20036;-77
2023/12/05 07:11:07;;;;;;;9.95;4.15;;;;;;;;;;5096620;28;20032;-77
2023/12/05 07:13:32;;;;;;;11.32;6.35;;;;;;;;;;5097844;28;20062;-77
2023/12/05 07:15:57;;;;;;;12.23;5.93;;;;;;;;;;5097753;28;20521;-77
2023/12/05 07:18:23;;;;;;;12.40;6.43;;;;;;;;;;5097548;28;20500;-76
2023/12/05 07:20:48;;;;;;;13.38;6.70;;;;;;;;;;5096438;28;20028;-77
2023/12/05 07:23:13;;;;;;;11.43;6.88;;;;;;;;;;5096708;28;20039;-77
2023/12/05 07:25:38;;;;;;;10.85;5.30;;;;;;;;;;5097627;28;20024;-77
2023/12/05 07:28:04;;;;;;;11.18;5.82;;;;;;;;;;5096851;28;20063;-77
2023/12/05 07:30:29;;;;;;;6.63;3.38;;;;;;;;;;5096346;28;20084;-77
2023/12/05 07:32:54;;;;;;;3.92;1.92;;;;;;;;;;5095804;28;20394;-77
2023/12/05 07:35:19;;;;;;;7.10;3.63;;;;;;;;;;5097479;28;20391;-77
2023/12/05 07:37:44;;;;;;;5.07;3.30;;;;;;;;;;5097015;28;20403;-77
2023/12/05 07:40:10;;;;;;;11.45;6.00;;;;;;;;;;5096211;28;20016;-76
2023/12/05 07:42:35;;;;;;;8.50;4.60;;;;;;;;;;5096083;28;20024;-76
2023/12/05 07:45:01;;;;;;;13.27;6.18;;;;;;;;;;5102281;28;20141;-78
2023/12/05 07:47:27;;;;;;;11.65;6.60;;;;;;;;;;5096825;28;20016;-79
2023/12/05 07:49:53;;;;;;;6.10;3.83;;;;;;;;;;5096595;28;20479;-77
2023/12/05 07:52:19;;;;;;;6.32;3.33;;;;;;;;;;5098819;28;20024;-77
2023/12/05 07:54:44;;;;;;;12.10;6.03;;;;;;;;;;5094878;28;20020;-77
2023/12/05 07:57:09;;;;;;;9.63;4.82;;;;;;;;;;5095803;28;20027;-77
2023/12/05 07:59:34;;;;;;;10.40;5.97;;;;;;;;;;5095413;28;20028;-77
2023/12/05 08:02:00;;;;;;;9.77;5.13;;;;;;;;;;5095281;28;20016;-76
2023/12/05 08:04:25;;;;;;;9.43;5.32;;;;;;;;;;5095913;28;20023;-77
2023/12/05 08:06:50;;;;;;;7.60;4.10;;;;;;;;;;5094538;28;20031;-76
2023/12/05 08:09:16;;;;;;;8.93;4.88;;;;;;;;;;5095217;28;20036;-77
2023/12/05 08:11:41;;;;;;;11.02;6.00;;;;;;;;;;5095638;28;20028;-77
2023/12/05 08:14:06;;;;;;;10.90;5.53;;;;;;;;;;5095556;28;20066;-77
2023/12/05 08:16:31;;;;;;;9.35;5.38;;;;;;;;;;5094159;28;20406;-77
2023/12/05 08:18:57;;;;;;;12.13;6.53;;;;;;;;;;5095402;28;20447;-77
2023/12/05 08:21:22;;;;;;;10.02;5.63;;;;;;;;;;5094769;28;20028;-77
2023/12/05 08:23:48;;;;;;;13.07;6.35;;;;;;;;;;5093776;28;20101;-77
2023/12/05 08:26:13;;;;;;;11.32;6.53;;;;;;;;;;5094858;28;20111;-77
2023/12/05 08:28:38;;;;;;;10.55;5.85;;;;;;;;;;5093682;28;20063;-77
2023/12/05 08:31:04;;;;;;;9.43;5.20;;;;;;;;;;5102677;28;20028;-80
2023/12/05 08:33:29;;;;;;;13.43;6.85;;;;;;;;;;5106141;28;20031;-80
2023/12/05 08:35:54;;;;;;;9.43;5.55;;;;;;;;;;5097476;28;20031;-78
2023/12/05 08:38:20;;;;;;;9.75;5.78;;;;;;;;;;5097195;28;20150;-78
2023/12/05 08:40:45;;;;;;;9.38;4.70;;;;;;;;;;5096095;28;20391;-78
2023/12/05 08:43:10;;;;;;;11.90;6.05;;;;;;;;;;5097376;28;20149;-77
2023/12/05 08:45:38;;;;;;;12.05;6.10;;;;;;;;;;5096581;28;20031;-78
2023/12/05 08:48:04;;;;;;;8.90;4.47;;;;;;;;;;5096414;28;20039;-77
2023/12/05 08:50:29;;;;;;;6.00;3.58;;;;;;;;;;5095367;28;20395;-78
2023/12/05 08:52:54;;;;;;;12.25;6.53;;;;;;;;;;5095597;28;20064;-78
2023/12/05 08:55:20;;;;;;;11.00;4.95;;;;;;;;;;5095863;28;20027;-79
2023/12/05 08:57:45;;;;;;;9.77;5.05;;;;;;;;;;5096477;28;20059;-78
2023/12/05 09:00:11;;;;;;;16.95;7.22;;;;;;;;;;5094514;28;20363;-78
2023/12/05 09:02:36;;;;;;;8.10;4.78;;;;;;;;;;5094293;28;20077;-78
2023/12/05 09:05:01;;;;;;;13.05;6.13;;;;;;;;;;5095207;28;20096;-77
2023/12/05 09:07:27;;;;;;;4.63;2.47;;;;;;;;;;5095395;28;20032;-77
2023/12/05 09:09:52;;;;;;;7.70;4.95;;;;;;;;;;5094183;28;20505;-77
2023/12/05 09:12:17;;;;;;;9.95;5.68;;;;;;;;;;5096389;28;20541;-77
2023/12/05 09:14:42;;;;;;;7.20;4.55;;;;;;;;;;5093623;28;20028;-76
2023/12/05 09:17:11;;;;;;;11.65;6.63;;;;;;;;;;5095294;28;20040;-77
2023/12/05 09:19:36;;;;;;;9.85;6.10;;;;;;;;;;5095583;28;20505;-77
2023/12/05 09:22:02;;;;;;;11.93;6.50;;;;;;;;;;5095750;28;20024;-77
2023/12/05 09:24:28;;;;;;;6.53;3.88;;;;;;;;;;5094181;28;20119;-77
2023/12/05 09:26:53;;;;;;;11.68;5.90;;;;;;;;;;5095098;28;20019;-78
2023/12/05 09:29:19;;;;;;;12.50;6.95;;;;;;;;;;5095401;28;20070;-78
2023/12/05 09:31:44;;;;;;;13.80;7.38;;;;;;;;;;5094529;28;20032;-78
2023/12/05 09:34:09;;;;;;;11.40;6.28;;;;;;;;;;5096812;28;20085;-77
2023/12/05 09:36:35;;;;;;;8.43;4.70;;;;;;;;;;5095140;28;20529;-77
2023/12/05 09:39:00;;;;;;;14.32;6.53;;;;;;;;;;5095018;28;20012;-78
2023/12/05 09:41:27;;;;;;;10.65;6.53;;;;;;;;;;5095907;28;20024;-78
2023/12/05 09:43:53;;;;;;;9.10;5.20;;;;;;;;;;5096272;28;20027;-78
2023/12/05 09:46:21;;;;;;;13.73;6.45;;;;;;;;;;5095821;28;20035;-78
2023/12/05 09:48:48;;;;;;;11.73;6.45;;;;;;;;;;5094475;28;20036;-78
2023/12/05 09:51:17;;;;;;;12.18;6.50;;;;;;;;;;5094792;28;20031;-77
2023/12/05 09:53:44;;;;;;;9.43;3.60;;;;;;;;;;5094432;28;20043;-77
2023/12/05 09:56:10;;;;;;;12.90;6.78;;;;;;;;;;5094218;28;20028;-77
2023/12/05 09:58:37;;;;;;;13.65;7.07;;;;;;;;;;5092653;28;20035;-78
2023/12/05 10:01:04;;;;;;;11.23;5.35;;;;;;;;;;5093441;28;20027;-77
2023/12/05 10:03:35;;;;;;;11.25;6.07;;;;;;;;;;5093912;28;20051;-78
2023/12/05 10:06:04;;;;;;;11.02;6.18;;;;;;;;;;5092969;28;20024;-78
2023/12/05 10:08:29;;;;;;;12.27;6.47;;;;;;;;;;5092928;28;20028;-76
2023/12/05 10:10:58;;;;;;;6.50;4.15;;;;;;;;;;5091972;28;20035;-77
2023/12/05 10:13:23;;;;;;;9.20;5.63;;;;;;;;;;5093954;28;20020;-78
2023/12/05 10:15:49;;;;;;;15.68;7.20;;;;;;;;;;5093995;28;20034;-77
2023/12/05 10:18:14;;;;;;;10.38;5.55;;;;;;;;;;5096340;28;20023;-77
2023/12/05 10:20:39;;;;;;;11.02;4.95;;;;;;;;;;5096166;28;20024;-78
2023/12/05 10:23:05;;;;;;;9.30;4.28;;;;;;;;;;5093578;28;20060;-79
2023/12/05 10:25:30;;;;;;;8.20;4.78;;;;;;;;;;5093952;28;20016;-77
2023/12/05 10:28:05;;;;;;;10.82;5.97;;;;;;;;;;5099076;28;20036;-76
2023/12/05 10:30:37;;;;;;;12.55;6.70;;;;;;;;;;5095895;28;20115;-76
2023/12/05 10:33:13;;;;;;;7.03;4.53;;;;;;;;;;5097247;28;20015;-77
2023/12/05 10:35:39;;;;;;;11.60;5.38;;;;;;;;;;5097243;28;20031;-77
2023/12/05 10:38:06;;;;;;;11.98;6.55;;;;;;;;;;5097191;28;20024;-76
2023/12/05 10:40:49;;;;;;;8.80;5.18;;;;;;;;;;5097128;28;20479;-77
2023/12/05 10:43:14;;;;;;;5.15;3.42;;;;;;;;;;5096456;28;20028;-76
2023/12/05 10:45:39;;;;;;;10.23;5.70;;;;;;;;;;5096993;28;20479;-77
2023/12/05 10:48:05;;;;;;;13.23;6.97;;;;;;;;;;5097375;28;20027;-77
2023/12/05 10:50:31;;;;;;;7.30;4.32;;;;;;;;;;5098002;28;20031;-78
2023/12/05 10:52:59;;;;;;;11.43;6.28;;;;;;;;;;5095996;28;20016;-77
2023/12/05 10:55:25;;;;;;;9.88;6.18;;;;;;;;;;5098161;28;20028;-77
2023/12/05 10:57:51;;;;;;;11.13;5.85;;;;;;;;;;5100916;28;20034;-77
2023/12/05 11:00:17;;;;;;;12.07;6.68;;;;;;;;;;5096796;28;20035;-76
2023/12/05 11:02:43;;;;;;;14.00;7.25;;;;;;;;;;5095652;28;20075;-84
2023/12/05 11:05:08;;;;;;;14.77;7.53;;;;;;;;;;5100731;28;20055;-76
2023/12/05 11:07:34;;;;;;;8.73;5.75;;;;;;;;;;5094634;28;20042;-77
2023/12/05 11:09:59;;;;;;;4.15;2.53;;;;;;;;;;5092853;28;20032;-76
2023/12/05 11:12:25;;;;;;;7.95;4.85;;;;;;;;;;5094310;28;20055;-77
2023/12/05 11:14:55;;;;;;;13.00;6.93;;;;;;;;;;5095028;28;20020;-77
2023/12/05 11:17:26;;;;;;;12.68;7.00;;;;;;;;;;5093652;28;20107;-77
2023/12/05 11:20:22;;;;;;;14.32;7.50;;;;;;;;;;5093603;28;20031;-77
2023/12/05 11:23:18;;;;;;;13.65;7.65;;;;;;;;;;5092437;28;20071;-76
2023/12/05 11:26:05;;;;;;;15.20;6.10;;;;;;;;;;5094288;28;20054;-76
2023/12/05 11:29:00;;;;;;;9.30;5.15;;;;;;;;;;5093231;28;20406;-76
2023/12/05 11:31:43;;;;;;;17.48;6.80;;;;;;;;;;5093654;28;20088;-77
2023/12/05 11:34:17;;;;;;;13.35;6.25;;;;;;;;;;5093832;28;20024;-77
2023/12/05 11:37:03;;;;;;;6.72;4.18;;;;;;;;;;5093619;28;20087;-76
2023/12/05 11:39:29;;;;;;;10.50;5.95;;;;;;;;;;5093892;28;20071;-76
2023/12/05 11:42:09;;;;;;;12.68;7.30;;;;;;;;;;5093720;28;20056;-77
2023/12/05 11:44:38;;;;;;;7.90;4.85;;;;;;;;;;5094135;28;20372;-76
2023/12/05 11:47:10;;;;;;;9.32;5.35;;;;;;;;;;5094201;28;20402;-77
2023/12/05 11:49:48;;;;;;;8.20;4.43;;;;;;;;;;5096982;28;20027;-77
2023/12/05 11:52:13;;;;;;;14.43;7.57;;;;;;;;;;5101479;28;20058;-78
2023/12/05 11:54:42;;;;;;;11.10;6.82;;;;;;;;;;5096491;28;20031;-76
2023/12/05 11:57:15;;;;;;;14.23;7.72;;;;;;;;;;5084724;28;20032;-76
2023/12/05 11:59:42;;;;;;;8.20;4.85;;;;;;;;;;5089168;28;20043;-76
2023/12/05 12:02:10;;;;;;;12.43;6.47;;;;;;;;;;5090845;28;20031;-78
2023/12/05 12:04:36;;;;;;;12.10;7.13;;;;;;;;;;5079372;28;20103;-78
2023/12/05 12:07:01;;;;;;;11.82;5.78;;;;;;;;;;5091568;28;20105;-77
2023/12/05 12:09:35;;;;;;;14.85;7.95;;;;;;;;;;5091099;27;20024;-78
2023/12/05 12:12:00;;;;;;;10.82;5.07;;;;;;;;;;5086616;28;20032;-77
2023/12/05 12:14:26;;;;;;;14.63;8.25;;;;;;;;;;5089767;28;20088;-78
2023/12/05 12:16:51;;;;;;;13.13;7.30;;;;;;;;;;5091411;28;20028;-77
2023/12/05 12:19:16;;;;;;;12.35;7.25;;;;;;;;;;5086749;28;20028;-77
2023/12/05 12:21:42;;;;;;;14.50;7.38;;;;;;;;;;5089444;28;20032;-78
2023/12/05 12:24:16;;;;;;;4.70;3.20;;;;;;;;;;5090156;28;20043;-77
2023/12/05 12:26:56;;;;;;;14.88;8.25;;;;;;;;;;5088340;28;20494;-78
2023/12/05 12:29:22;;;;;;;15.38;8.52;;;;;;;;;;5090808;28;20414;-78
2023/12/05 12:31:48;;;;;;;9.57;4.10;;;;;;;;;;5089722;28;20042;-77
2023/12/05 12:34:27;;;;;;;17.67;7.40;;;;;;;;;;5091123;28;20027;-78
2023/12/05 12:36:53;;;;;;;12.57;6.97;;;;;;;;;;5093804;28;20431;-75
2023/12/05 12:39:19;;;;;;;16.30;8.30;;;;;;;;;;5093704;28;20024;-77
2023/12/05 12:41:48;;;;;;;17.70;8.43;;;;;;;;;;5094074;28;20024;-76
2023/12/05 12:44:15;;;;;;;19.85;8.10;;;;;;;;;;5094278;28;20020;-78
2023/12/05 12:46:41;;;;;;;13.23;7.30;;;;;;;;;;5094237;28;20107;-78
2023/12/05 12:49:06;;;;;;;13.40;6.45;;;;;;;;;;5092064;28;20110;-77
2023/12/05 12:51:34;;;;;;;10.73;5.30;;;;;;;;;;5093387;28;20023;-76
2023/12/05 12:54:01;;;;;;;18.35;8.35;;;;;;;;;;5094745;28;20483;-76
2023/12/05 12:56:29;;;;;;;13.25;7.13;;;;;;;;;;5094700;28;20024;-77
2023/12/05 12:58:58;;;;;;;19.42;9.75;;;;;;;;;;5093396;28;20032;-77
2023/12/05 13:01:25;;;;;;;13.52;6.95;;;;;;;;;;5095141;28;20024;-78
2023/12/05 13:03:53;;;;;;;19.95;8.75;;;;;;;;;;5093808;28;20124;-77
2023/12/05 13:06:19;;;;;;;16.30;8.00;;;;;;;;;;5093305;28;20024;-76
2023/12/05 13:08:44;;;;;;;19.27;9.25;;;;;;;;;;5094161;28;20035;-77
2023/12/05 13:11:09;;;;;;;17.15;8.23;;;;;;;;;;5092885;28;20087;-76
2023/12/05 13:13:35;;;;;;;15.77;7.57;;;;;;;;;;5094048;28;20111;-77
2023/12/05 13:16:02;;;;;;;14.43;7.80;;;;;;;;;;5093224;28;20072;-76
2023/12/05 13:18:40;;;;;;;12.55;6.63;;;;;;;;;;5094127;28;20363;-75
2023/12/05 13:21:05;;;;;;;17.65;9.45;;;;;;;;;;5094346;28;20034;-76
2023/12/05 13:23:30;;;;;;;18.52;8.50;;;;;;;;;;5094406;28;20032;-77
2023/12/05 13:25:56;;;;;;;21.70;10.35;;;;;;;;;;5094463;28;20050;-77
2023/12/05 13:28:23;;;;;;;12.60;7.40;;;;;;;;;;5092563;28;20367;-77
2023/12/05 13:30:48;;;;;;;19.80;10.00;;;;;;;;;;5093109;28;20027;-77
2023/12/05 13:33:15;;;;;;;19.92;9.95;;;;;;;;;;5092695;28;20024;-77
2023/12/05 13:35:41;;;;;;;13.93;6.03;;;;;;;;;;5097273;28;20020;-77
2023/12/05 13:38:07;;;;;;;19.15;9.50;;;;;;;;;;5096360;28;20390;-77
2023/12/05 13:40:32;;;;;;;12.90;5.45;;;;;;;;;;5101298;28;20042;-78
2023/12/05 13:42:58;;;;;;;16.35;8.75;;;;;;;;;;5095313;28;20025;-78
2023/12/05 13:45:23;;;;;;;16.48;8.07;;;;;;;;;;5094580;28;20035;-76
2023/12/05 13:47:48;;;;;;;16.50;8.65;;;;;;;;;;5093655;28;20035;-77
2023/12/05 13:50:13;;;;;;;17.42;9.38;;;;;;;;;;5093788;28;20016;-77
2023/12/05 13:52:39;;;;;;;22.65;8.27;;;;;;;;;;5092774;28;20579;-77
2023/12/05 13:55:05;;;;;;;17.10;9.63;;;;;;;;;;5094312;28;20100;-77
2023/12/05 13:57:31;;;;;;;17.08;8.95;;;;;;;;;;5095834;28;20019;-78
2023/12/05 13:59:56;;;;;;;17.67;8.35;;;;;;;;;;5096683;28;20038;-77
2023/12/05 14:02:21;;;;;;;15.43;7.60;;;;;;;;;;5094117;28;20027;-76
2023/12/05 14:04:47;;;;;;;21.50;5.40;;;;;;;;;;5095471;28;20031;-78
2023/12/05 14:07:12;;;;;;;14.15;7.32;;;;;;;;;;5095640;28;20116;-78
2023/12/05 14:09:37;;;;;;;19.52;9.02;;;;;;;;;;5096266;28;20059;-79
2023/12/05 14:12:11;;;;;;;12.35;6.10;;;;;;;;;;5096044;28;20052;-78
2023/12/05 14:14:36;;;;;;;23.55;10.45;;;;;;;;;;5097083;28;20069;-79
2023/12/05 14:17:01;;;;;;;19.67;9.27;;;;;;;;;;5097950;28;20024;-77
2023/12/05 14:19:27;;;;;;;18.98;9.18;;;;;;;;;;5095320;28;20024;-77
2023/12/05 14:21:53;;;;;;;14.82;7.68;;;;;;;;;;5096183;28;20026;-78
2023/12/05 14:24:21;;;;;;;17.13;9.40;;;;;;;;;;5100072;28;20050;-78
2023/12/05 14:26:47;;;;;;;14.00;7.25;;;;;;;;;;5105150;28;20031;-79
2023/12/05 14:29:48;;;;;;;13.40;6.63;;;;;;;;;;5100326;28;20032;-86
2023/12/05 14:32:14;;;;;;;22.67;9.68;;;;;;;;;;5100485;28;20348;-79